createdAt,value
2022-10-19T00:03:01.616Z,100933.63
2022-10-19T00:05:47.189Z,100954.31
2022-10-19T00:08:33.112Z,100930.59
2022-10-19T00:11:19.389Z,100905.38
2022-10-19T00:14:05.262Z,100933.88
2022-10-19T00:16:52.571Z,100934.06
2022-10-19T00:19:38.189Z,100932.22
2022-10-19T00:22:23.922Z,100919.19
2022-10-19T00:25:09.737Z,100956.19
2022-10-19T00:27:55.520Z,100944.44
2022-10-19T00:30:41.353Z,100960.56
2022-10-19T00:33:26.993Z,100938.75
2022-10-19T00:36:21.554Z,100949.88
2022-10-19T00:39:10.915Z,100943.34
2022-10-19T00:41:56.751Z,100958.41
2022-10-19T00:44:42.637Z,100947.13
2022-10-19T00:47:29.173Z,100931.13
2022-10-19T00:50:15.190Z,100949.34
2022-10-19T00:53:01.481Z,100939.47
2022-10-19T00:55:47.174Z,100941.72
2022-10-19T00:58:33.244Z,100943.25
2022-10-19T01:01:21.027Z,100924.28
2022-10-19T01:04:06.846Z,100914.66
2022-10-19T01:06:55.571Z,100935.56
2022-10-19T01:09:41.348Z,100920.06
2022-10-19T01:12:56.034Z,100909.69
2022-10-19T01:15:47.478Z,100930.09
2022-10-19T01:18:45.082Z,100936.38
2022-10-19T01:22:08.538Z,100914.34
2022-10-19T01:25:09.890Z,100917.41
2022-10-19T01:28:15.357Z,100932.88
2022-10-19T01:31:25.227Z,100929.34
2022-10-19T01:34:32.570Z,100922.22
2022-10-19T01:37:23.235Z,100909.44
2022-10-19T01:40:13.080Z,100923.69
2022-10-19T01:43:03.615Z,100910.56
2022-10-19T01:45:55.113Z,100929.63
2022-10-19T01:48:48.573Z,100906.63
2022-10-19T01:51:36.312Z,100920.25
2022-10-19T01:54:22.846Z,100904.78
2022-10-19T01:57:11.642Z,100917.84
2022-10-19T01:59:58.274Z,100899.59
2022-10-19T02:02:47.984Z,100892.47
2022-10-19T02:05:34.803Z,100903.88
2022-10-19T02:08:29.212Z,100916.22
2022-10-19T02:11:16.010Z,100897.59
2022-10-19T02:14:07.782Z,100899.50
2022-10-19T02:16:59.029Z,100883.34
2022-10-19T02:19:45.371Z,100899.50
2022-10-19T02:22:31.572Z,100897.34
2022-10-19T02:25:17.514Z,100899.22
2022-10-19T02:28:04.551Z,100901.97
2022-10-19T02:30:50.651Z,100902.84
2022-10-19T02:33:36.992Z,100876.47
2022-10-19T02:36:23.127Z,100896.03
2022-10-19T02:39:09.023Z,100892.53
2022-10-19T02:42:11.787Z,100860.53
2022-10-19T02:45:00.575Z,100881.81
2022-10-19T02:47:54.931Z,100899.75
2022-10-19T02:50:45.126Z,100895.69
2022-10-19T02:53:31.366Z,100874.97
2022-10-19T02:56:16.800Z,100885.16
2022-10-19T02:59:03.528Z,100880.19
2022-10-19T03:01:49.143Z,100889.97
2022-10-19T03:04:35.176Z,100888.84
2022-10-19T03:07:21.748Z,100867.66
2022-10-19T03:10:07.726Z,100895.69
2022-10-19T03:12:53.232Z,100867.84
2022-10-19T03:15:39.002Z,100882.56
2022-10-19T03:18:24.560Z,100854.53
2022-10-19T03:21:12.899Z,100881.53
2022-10-19T03:24:00.790Z,100864.31
2022-10-19T03:26:46.883Z,100844.31
2022-10-19T03:29:32.531Z,100864.38
2022-10-19T03:32:18.512Z,100889.75
2022-10-19T03:35:04.821Z,100862.00
2022-10-19T03:37:50.539Z,100867.81
2022-10-19T03:40:36.352Z,100881.44
2022-10-19T03:43:22.105Z,100887.72
2022-10-19T03:46:08.618Z,100875.13
2022-10-19T03:48:55.076Z,100871.13
2022-10-19T03:51:40.843Z,100879.50
2022-10-19T03:54:27.574Z,100865.13
2022-10-19T03:57:13.523Z,100881.13
2022-10-19T03:59:59.812Z,100856.16
2022-10-19T04:02:45.645Z,100860.25
2022-10-19T04:05:31.405Z,100866.00
2022-10-19T04:08:17.203Z,100882.84
2022-10-19T04:11:07.965Z,100877.13
2022-10-19T04:13:54.325Z,100874.47
2022-10-19T04:16:40.120Z,100871.81
2022-10-19T04:19:25.610Z,100877.72
2022-10-19T04:22:11.125Z,100862.75
2022-10-19T04:24:56.727Z,100874.41
2022-10-19T04:27:42.546Z,100878.19
2022-10-19T04:30:28.115Z,100864.75
2022-10-19T04:33:14.293Z,100880.75
2022-10-19T04:36:05.139Z,100880.53
2022-10-19T04:38:50.870Z,100899.66
2022-10-19T04:41:37.884Z,100902.47
2022-10-19T04:47:14.107Z,100890.75
2022-10-19T04:49:59.664Z,100883.44
2022-10-19T04:52:45.873Z,100894.53
2022-10-19T04:55:31.600Z,100877.41
2022-10-19T04:58:17.276Z,100886.63
2022-10-19T05:01:17.273Z,100896.75
2022-10-19T05:04:03.619Z,100883.63
2022-10-19T05:06:49.655Z,100895.06
2022-10-19T05:09:35.213Z,100877.94
2022-10-19T05:12:21.267Z,100894.53
2022-10-19T05:15:07.295Z,100902.16
2022-10-19T05:17:54.399Z,100880.53
2022-10-19T05:20:40.384Z,100883.63
2022-10-19T05:23:26.302Z,100882.00
2022-10-19T05:26:17.443Z,100888.84
2022-10-19T05:29:04.522Z,100888.59
2022-10-19T05:31:51.036Z,100875.03
2022-10-19T05:34:36.594Z,100873.91
2022-10-19T05:37:22.489Z,100881.84
2022-10-19T05:40:09.480Z,100900.09
2022-10-19T05:42:55.575Z,100897.69
2022-10-19T05:45:42.016Z,100909.16
2022-10-19T05:48:32.941Z,100899.56
2022-10-19T05:51:20.266Z,100908.31
2022-10-19T05:54:06.507Z,100878.06
2022-10-19T05:56:52.708Z,100908.03
2022-10-19T05:59:38.160Z,100902.31
2022-10-19T06:02:24.399Z,100899.13
2022-10-19T06:05:10.282Z,100917.66
2022-10-19T06:07:55.909Z,100922.84
2022-10-19T06:10:41.416Z,100900.50
2022-10-19T06:13:27.284Z,100917.06
2022-10-19T06:16:18.289Z,100918.94
2022-10-19T06:19:05.282Z,100899.31
2022-10-19T06:21:50.906Z,100919.22
2022-10-19T06:24:36.908Z,100914.63
2022-10-19T06:27:22.821Z,100933.38
2022-10-19T06:30:09.229Z,100920.56
2022-10-19T06:32:55.016Z,100943.16
2022-10-19T06:35:42.991Z,100920.25
2022-10-19T06:38:28.606Z,100923.00
2022-10-19T06:41:14.198Z,100942.06
2022-10-19T06:44:00.172Z,100929.53
2022-10-19T06:46:46.588Z,100927.69
2022-10-19T06:49:32.085Z,100938.50
2022-10-19T06:52:17.952Z,100945.31
2022-10-19T06:55:04.004Z,100949.13
2022-10-19T06:57:50.216Z,100948.53
2022-10-19T07:00:36.671Z,100936.28
2022-10-19T07:03:22.216Z,100953.41
2022-10-19T07:06:09.949Z,100946.53
2022-10-19T07:08:55.847Z,100950.84
2022-10-19T07:11:45.726Z,100955.28
2022-10-19T07:14:38.566Z,100942.00
2022-10-19T07:17:24.050Z,100943.88
2022-10-19T07:20:10.773Z,100961.47
2022-10-19T07:22:56.543Z,100943.19
2022-10-19T07:25:42.505Z,100961.47
2022-10-19T07:28:29.476Z,100950.56
2022-10-19T07:31:20.684Z,100966.03
2022-10-19T07:34:06.590Z,100975.03
2022-10-19T07:36:52.648Z,100962.50
2022-10-19T07:39:38.525Z,100961.66
2022-10-19T07:42:24.584Z,100966.22
2022-10-19T07:45:10.635Z,100974.56
2022-10-19T07:47:56.744Z,100972.28
2022-10-19T07:50:47.924Z,100981.25
2022-10-19T07:53:34.753Z,100959.72
2022-10-19T07:56:23.017Z,100967.41
2022-10-19T07:59:09.941Z,100984.22
2022-10-19T08:01:57.128Z,100979.63
2022-10-19T08:04:59.393Z,100987.06
2022-10-19T08:07:46.995Z,100979.69
2022-10-19T08:10:33.208Z,100966.28
2022-10-19T08:13:18.780Z,100973.63
2022-10-19T08:16:04.974Z,100992.81
2022-10-19T08:18:51.166Z,100972.06
2022-10-19T08:21:38.129Z,100998.16
2022-10-19T08:24:23.589Z,100985.00
2022-10-19T08:27:09.375Z,100974.72
2022-10-19T08:29:55.260Z,100964.25
2022-10-19T08:32:41.221Z,100986.13
2022-10-19T08:35:27.768Z,100998.66
2022-10-19T08:38:13.360Z,100989.41
2022-10-19T08:41:08.940Z,100993.78
2022-10-19T08:44:18.698Z,101003.03
2022-10-19T08:47:38.668Z,101005.09
2022-10-19T08:50:44.402Z,100997.69
2022-10-19T08:53:40.239Z,101008.97
2022-10-19T08:56:50.566Z,101007.25
2022-10-19T08:59:40.699Z,101014.69
2022-10-19T09:02:33.019Z,101023.22
2022-10-19T09:05:34.395Z,101014.09
2022-10-19T09:08:20.780Z,100983.81
2022-10-19T09:11:09.773Z,100991.47
2022-10-19T09:14:05.630Z,101017.03
2022-10-19T09:16:52.010Z,101002.69
2022-10-19T09:19:38.380Z,101023.97
2022-10-19T09:22:29.797Z,101019.78
2022-10-19T09:25:21.772Z,101021.22
2022-10-19T09:28:25.693Z,101021.50
2022-10-19T09:31:29.123Z,101029.47
2022-10-19T09:34:17.869Z,101024.78
2022-10-19T09:37:04.441Z,101012.47
2022-10-19T09:39:54.125Z,101038.13
2022-10-19T09:42:40.979Z,101007.34
2022-10-19T09:45:35.208Z,101042.59
2022-10-19T09:48:29.888Z,101031.78
2022-10-19T09:51:17.260Z,101023.81
2022-10-19T09:54:04.302Z,101040.75
2022-10-19T09:56:54.430Z,101058.25
2022-10-19T09:59:42.419Z,101049.22
2022-10-19T10:02:31.029Z,101036.28
2022-10-19T10:05:16.794Z,101025.28
2022-10-19T10:08:04.359Z,101058.50
2022-10-19T10:11:12.397Z,101056.13
2022-10-19T10:14:00.656Z,101078.97
2022-10-19T10:16:46.424Z,101060.78
2022-10-19T10:19:33.941Z,101083.44
2022-10-19T10:22:26.053Z,101083.31
2022-10-19T10:25:16.275Z,101080.94
2022-10-19T10:28:18.376Z,101073.78
2022-10-19T10:31:07.905Z,101073.88
2022-10-19T10:34:10.825Z,101090.19
2022-10-19T10:37:11.312Z,101085.22
2022-10-19T10:40:01.755Z,101090.94
2022-10-19T10:42:52.320Z,101073.59
2022-10-19T10:45:41.161Z,101082.13
2022-10-19T10:48:41.458Z,101099.72
2022-10-19T10:51:32.030Z,101092.28
2022-10-19T10:54:30.426Z,101080.56
2022-10-19T10:57:19.981Z,101097.91
2022-10-19T11:00:12.262Z,101108.53
2022-10-19T11:03:13.467Z,101112.28
2022-10-19T11:06:05.368Z,101097.13
2022-10-19T11:08:57.858Z,101102.69
2022-10-19T11:11:46.232Z,101108.09
2022-10-19T11:14:52.531Z,101106.25
2022-10-19T11:17:41.449Z,101115.88
2022-10-19T11:20:30.363Z,101090.19
2022-10-19T11:23:41.061Z,101115.31
2022-10-19T11:26:45.166Z,101114.56
2022-10-19T11:29:35.830Z,101109.44
2022-10-19T11:32:47.129Z,101101.00
2022-10-19T11:35:45.052Z,101105.22
2022-10-19T11:38:37.030Z,101104.09
2022-10-19T11:41:44.645Z,101077.56
2022-10-19T11:44:36.857Z,101111.91
2022-10-19T11:48:02.612Z,101103.81
2022-10-19T11:50:54.048Z,101107.66
2022-10-19T11:53:58.516Z,101104.09
2022-10-19T11:57:04.073Z,101107.44
2022-10-19T11:59:50.843Z,101109.38
2022-10-19T12:02:39.697Z,101112.06
2022-10-19T12:05:28.013Z,101110.84
2022-10-19T12:08:42.760Z,101120.22
2022-10-19T12:11:49.996Z,101111.56
2022-10-19T12:14:37.281Z,101095.84
2022-10-19T12:17:29.614Z,101083.91
2022-10-19T12:20:41.389Z,101118.59
2022-10-19T12:23:38.577Z,101101.94
2022-10-19T12:26:24.993Z,101109.59
2022-10-19T12:29:16.447Z,101089.41
2022-10-19T12:32:03.503Z,101109.06
2022-10-19T12:35:00.447Z,101107.22
2022-10-19T12:38:02.883Z,101103.06
2022-10-19T12:40:54.261Z,101103.66
2022-10-19T12:43:55.999Z,101103.88
2022-10-19T12:46:47.012Z,101085.53
2022-10-19T12:49:35.894Z,101101.97
2022-10-19T12:52:42.263Z,101091.88
2022-10-19T12:55:34.712Z,101082.22
2022-10-19T12:58:21.966Z,101106.47
2022-10-19T13:01:09.531Z,101098.31
2022-10-19T13:04:13.850Z,101094.94
2022-10-19T13:07:03.232Z,101123.22
2022-10-19T13:09:49.350Z,101098.84
2022-10-19T13:12:44.176Z,101115.03
2022-10-19T13:15:36.471Z,101119.13
2022-10-19T13:19:02.193Z,101119.00
2022-10-19T13:22:12.870Z,101092.66
2022-10-19T13:25:16.519Z,101125.50
2022-10-19T13:28:07.992Z,101115.13
2022-10-19T13:31:00.489Z,101135.50
2022-10-19T13:33:52.244Z,101131.28
2022-10-19T13:36:40.215Z,101116.78
2022-10-19T13:39:27.769Z,101133.22
2022-10-19T13:42:24.230Z,101139.06
2022-10-19T13:45:21.953Z,101133.88
2022-10-19T13:48:18.852Z,101139.28
2022-10-19T13:51:11.227Z,101129.09
2022-10-19T13:54:23.815Z,101146.56
2022-10-19T13:57:18.721Z,101146.06
2022-10-19T14:00:18.131Z,101131.94
2022-10-19T14:03:19.328Z,101147.00
2022-10-19T14:06:27.656Z,101126.00
2022-10-19T14:09:29.511Z,101137.00
2022-10-19T14:12:24.446Z,101128.53
2022-10-19T14:15:25.787Z,101155.84
2022-10-19T14:18:22.975Z,101153.19
2022-10-19T14:21:09.838Z,101152.19
2022-10-19T14:23:55.740Z,101146.06
2022-10-19T14:26:41.290Z,101158.38
2022-10-19T14:29:27.481Z,101164.25
2022-10-19T14:32:13.882Z,101157.19
2022-10-19T14:35:06.844Z,101165.53
2022-10-19T14:37:52.880Z,101180.81
2022-10-19T14:40:40.735Z,101175.78
2022-10-19T14:43:30.424Z,101173.75
2022-10-19T14:46:16.954Z,101167.13
2022-10-19T14:49:06.164Z,101177.03
2022-10-19T14:51:55.377Z,101180.75
2022-10-19T14:54:43.751Z,101184.63
2022-10-19T14:57:33.088Z,101175.72
2022-10-19T15:00:21.978Z,101184.19
2022-10-19T15:03:11.463Z,101186.69
2022-10-19T15:06:01.671Z,101181.84
2022-10-19T15:08:51.079Z,101194.72
2022-10-19T15:11:39.459Z,101186.81
2022-10-19T15:14:30.821Z,101185.22
2022-10-19T15:17:26.200Z,101194.50
2022-10-19T15:20:26.446Z,101182.56
2022-10-19T15:23:33.728Z,101200.06
2022-10-19T15:26:52.326Z,101206.16
2022-10-19T15:30:04.874Z,101205.34
2022-10-19T15:33:04.325Z,101202.09
2022-10-19T15:35:50.642Z,101205.41
2022-10-19T15:38:36.421Z,101180.00
2022-10-19T15:41:30.543Z,101209.31
2022-10-19T15:44:51.934Z,101213.69
2022-10-19T15:47:37.476Z,101195.72
2022-10-19T15:50:37.950Z,101221.41
2022-10-19T15:53:25.088Z,101209.41
2022-10-19T15:56:13.585Z,101203.44
2022-10-19T15:59:04.125Z,101227.50
2022-10-19T16:01:55.001Z,101217.41
2022-10-19T16:04:42.051Z,101222.88
2022-10-19T16:07:30.710Z,101235.47
2022-10-19T16:10:19.186Z,101242.88
2022-10-19T16:13:05.088Z,101245.91
2022-10-19T16:16:01.296Z,101234.16
2022-10-19T16:18:56.991Z,101251.94
2022-10-19T16:21:45.639Z,101237.72
2022-10-19T16:24:33.619Z,101232.78
2022-10-19T16:27:19.133Z,101248.13
2022-10-19T16:30:05.836Z,101242.41
2022-10-19T16:32:51.416Z,101261.78
2022-10-19T16:35:37.914Z,101254.69
2022-10-19T16:38:23.560Z,101260.44
2022-10-19T16:41:10.570Z,101255.78
2022-10-19T16:43:56.810Z,101259.63
2022-10-19T16:46:42.844Z,101273.81
2022-10-19T16:49:28.529Z,101275.72
2022-10-19T16:52:14.461Z,101258.22
2022-10-19T16:55:00.139Z,101250.81
2022-10-19T16:57:45.865Z,101270.25
2022-10-19T17:00:31.765Z,101254.06
2022-10-19T17:03:17.463Z,101260.59
2022-10-19T17:06:05.224Z,101281.09
2022-10-19T17:09:29.930Z,101260.03
2022-10-19T17:11:56.494Z,101285.72
2022-10-19T17:14:42.879Z,101290.09
2022-10-19T17:17:28.683Z,101287.09
2022-10-19T17:20:15.772Z,101290.91
2022-10-19T17:23:01.621Z,101272.56
2022-10-19T17:25:48.389Z,101296.59
2022-10-19T17:28:35.196Z,101302.88
2022-10-19T17:31:21.194Z,101308.03
2022-10-19T17:34:07.227Z,101292.19
2022-10-19T17:36:52.880Z,101296.00
2022-10-19T17:39:38.402Z,101303.06
2022-10-19T17:42:24.122Z,101309.63
2022-10-19T17:45:10.139Z,101309.06
2022-10-19T17:47:56.525Z,101322.72
2022-10-19T17:50:42.245Z,101329.53
2022-10-19T17:53:29.049Z,101332.25
2022-10-19T17:56:19.369Z,101339.84
2022-10-19T17:59:08.195Z,101336.84
2022-10-19T18:01:54.201Z,101329.13
2022-10-19T18:04:40.329Z,101349.06
2022-10-19T18:07:26.568Z,101337.22
2022-10-19T18:10:13.444Z,101351.16
2022-10-19T18:12:59.165Z,101355.00
2022-10-19T18:15:45.081Z,101364.22
2022-10-19T18:18:32.932Z,101339.28
2022-10-19T18:21:21.218Z,101349.09
2022-10-19T18:24:14.283Z,101363.50
2022-10-19T18:27:01.521Z,101338.56
2022-10-19T18:29:47.387Z,101364.22
2022-10-19T18:32:33.586Z,101365.00
2022-10-19T18:35:19.594Z,101356.75
2022-10-19T18:38:06.602Z,101363.88
2022-10-19T18:40:53.426Z,101367.16
2022-10-19T18:43:40.646Z,101368.50
2022-10-19T18:46:26.705Z,101363.31
2022-10-19T18:49:13.089Z,101346.84
2022-10-19T18:51:58.676Z,101352.00
2022-10-19T18:54:44.874Z,101345.22
2022-10-19T18:57:31.868Z,101349.81
2022-10-19T19:00:17.610Z,101373.88
2022-10-19T19:03:03.582Z,101375.75
2022-10-19T19:05:50.061Z,101368.03
2022-10-19T19:08:36.502Z,101348.59
2022-10-19T19:11:24.656Z,101373.25
2022-10-19T19:14:15.973Z,101381.06
2022-10-19T19:17:02.002Z,101377.97
2022-10-19T19:19:47.423Z,101377.91
2022-10-19T19:22:34.392Z,101386.34
2022-10-19T19:25:20.667Z,101382.09
2022-10-19T19:28:06.593Z,101384.53
2022-10-19T19:30:52.525Z,101377.84
2022-10-19T19:33:39.112Z,101387.09
2022-10-19T19:36:25.103Z,101389.75
2022-10-19T19:39:10.891Z,101398.25
2022-10-19T19:41:56.690Z,101379.72
2022-10-19T19:44:42.961Z,101404.22
2022-10-19T19:47:28.504Z,101376.03
2022-10-19T19:50:14.962Z,101382.31
2022-10-19T19:53:02.039Z,101399.00
2022-10-19T19:55:48.958Z,101393.50
2022-10-19T19:58:35.058Z,101395.94
2022-10-19T20:01:21.649Z,101400.88
2022-10-19T20:04:07.498Z,101413.47
2022-10-19T20:06:53.515Z,101405.16
2022-10-19T20:09:39.562Z,101418.88
2022-10-19T20:12:25.737Z,101393.91
2022-10-19T20:15:12.876Z,101412.00
2022-10-19T20:17:59.069Z,101403.13
2022-10-19T20:20:44.522Z,101395.59
2022-10-19T20:23:31.183Z,101416.34
2022-10-19T20:26:18.756Z,101410.78
2022-10-19T20:29:05.221Z,101415.16
2022-10-19T20:31:50.801Z,101407.19
2022-10-19T20:34:36.893Z,101409.06
2022-10-19T20:37:22.447Z,101415.50
2022-10-19T20:40:09.370Z,101414.34
2022-10-19T20:42:56.528Z,101383.75
2022-10-19T20:45:42.948Z,101401.66
2022-10-19T20:48:29.403Z,101422.16
2022-10-19T20:51:29.121Z,101410.25
2022-10-19T20:54:17.402Z,101414.63
2022-10-19T20:57:03.821Z,101408.28
2022-10-19T20:59:49.902Z,101428.38
2022-10-19T21:02:36.097Z,101409.22
2022-10-19T21:05:23.090Z,101404.09
2022-10-19T21:08:10.434Z,101403.81
2022-10-19T21:10:56.743Z,101407.44
2022-10-19T21:13:43.120Z,101407.28
2022-10-19T21:16:35.472Z,101426.97
2022-10-19T21:19:23.818Z,101413.84
2022-10-19T21:22:09.392Z,101409.84
2022-10-19T21:24:55.771Z,101429.94
2022-10-19T21:27:41.862Z,101424.56
2022-10-19T21:30:27.909Z,101425.41
2022-10-19T21:33:14.471Z,101439.53
2022-10-19T21:36:02.855Z,101421.78
2022-10-19T21:38:48.915Z,101425.72
2022-10-19T21:41:34.583Z,101436.31
2022-10-19T21:44:22.166Z,101429.22
2022-10-19T21:47:08.019Z,101427.03
2022-10-19T21:49:53.749Z,101428.97
2022-10-19T21:52:39.638Z,101416.22
2022-10-19T21:55:25.613Z,101419.06
2022-10-19T21:58:11.666Z,101439.06
2022-10-19T22:01:04.333Z,101452.28
2022-10-19T22:03:54.306Z,101440.25
2022-10-19T22:06:40.709Z,101439.25
2022-10-19T22:09:26.793Z,101420.56
2022-10-19T22:15:03.674Z,101442.72
2022-10-19T22:17:50.075Z,101436.28
2022-10-19T22:20:37.200Z,101421.53
2022-10-19T22:23:23.095Z,101440.16
2022-10-19T22:26:17.570Z,101428.47
2022-10-19T22:29:04.557Z,101435.88
2022-10-19T22:31:50.466Z,101416.22
2022-10-19T22:34:36.904Z,101439.63
2022-10-19T22:37:23.249Z,101434.97
2022-10-19T22:40:10.045Z,101441.34
2022-10-19T22:42:55.672Z,101429.00
2022-10-19T22:45:41.107Z,101433.06
2022-10-19T22:48:27.201Z,101429.84
2022-10-19T22:51:12.833Z,101450.72
2022-10-19T22:53:58.825Z,101455.47
2022-10-19T22:56:44.557Z,101445.94
2022-10-19T22:59:30.569Z,101437.34
2022-10-19T23:02:16.066Z,101448.78
2022-10-19T23:05:01.773Z,101476.66
2022-10-19T23:07:47.667Z,101466.63
2022-10-19T23:10:33.878Z,101468.63
2022-10-19T23:13:20.480Z,101457.78
2022-10-19T23:16:06.700Z,101472.91
2022-10-19T23:18:52.567Z,101471.94
2022-10-19T23:21:38.177Z,101481.28
2022-10-19T23:24:24.683Z,101480.94
2022-10-19T23:27:10.732Z,101476.56
2022-10-19T23:29:56.884Z,101479.06
2022-10-19T23:32:42.532Z,101490.25
2022-10-19T23:35:28.326Z,101484.72
2022-10-19T23:38:14.260Z,101491.69
2022-10-19T23:41:00.003Z,101480.44
2022-10-19T23:43:46.606Z,101487.53
2022-10-19T23:46:32.481Z,101464.78
2022-10-19T23:49:17.957Z,101465.00
2022-10-19T23:52:03.639Z,101461.69
2022-10-19T23:54:49.334Z,101465.47
2022-10-19T23:57:35.641Z,101485.06
